createdAt,value
2017-11-10T00:00:12.571Z,27.20
2017-11-10T00:01:12.547Z,32.10
2017-11-10T00:02:12.773Z,38.00
2017-11-10T00:03:12.484Z,38.20
2017-11-10T00:04:12.464Z,41.00
2017-11-10T00:05:12.432Z,38.10
2017-11-10T00:06:12.407Z,45.70
2017-11-10T00:07:12.381Z,44.90
2017-11-10T00:08:12.357Z,42.40
2017-11-10T00:09:12.322Z,49.30
2017-11-10T00:10:12.302Z,51.00
2017-11-10T00:11:12.270Z,47.70
2017-11-10T00:12:12.242Z,31.10
2017-11-10T00:13:12.210Z,47.50
2017-11-10T00:14:12.185Z,44.10
2017-11-10T00:15:12.155Z,48.20
2017-11-10T00:16:12.132Z,47.80
2017-11-10T00:17:12.108Z,47.80
2017-11-10T00:18:12.074Z,45.90
2017-11-10T00:19:12.051Z,46.40
2017-11-10T00:20:12.018Z,46.30
2017-11-10T00:21:11.989Z,44.70
2017-11-10T00:22:11.963Z,44.70
2017-11-10T00:23:11.944Z,47.50
2017-11-10T00:24:11.920Z,50.60
2017-11-10T00:25:11.885Z,46.00
2017-11-10T00:26:12.108Z,39.30
2017-11-10T00:27:11.830Z,44.30
2017-11-10T00:28:11.809Z,37.80
2017-11-10T00:29:11.777Z,38.50
2017-11-10T00:30:11.748Z,42.10
2017-11-10T00:31:11.730Z,39.40
2017-11-10T00:32:11.994Z,38.90
2017-11-10T00:33:11.664Z,41.80
2017-11-10T00:34:11.640Z,42.00
2017-11-10T00:35:11.607Z,36.50
2017-11-10T00:36:11.580Z,41.50
2017-11-10T00:37:11.552Z,38.50
2017-11-10T00:38:11.532Z,40.00
2017-11-10T00:39:11.511Z,35.80
2017-11-10T00:40:11.469Z,42.00
2017-11-10T00:41:11.444Z,37.00
2017-11-10T00:42:11.417Z,36.70
2017-11-10T00:43:11.391Z,35.70
2017-11-10T00:44:11.366Z,40.60
2017-11-10T00:45:11.338Z,35.80
2017-11-10T00:46:11.311Z,39.90
2017-11-10T00:47:11.286Z,25.80
2017-11-10T00:48:11.255Z,44.50
2017-11-10T00:49:11.531Z,44.90
2017-11-10T00:50:11.202Z,42.00
2017-11-10T00:51:11.175Z,43.90
2017-11-10T00:52:11.144Z,45.20
2017-11-10T00:53:11.122Z,41.90
2017-11-10T00:54:11.108Z,42.70
2017-11-10T00:55:11.312Z,52.50
2017-11-10T00:56:11.038Z,49.00
2017-11-10T00:57:11.005Z,54.30
2017-11-10T00:58:10.989Z,36.50
2017-11-10T00:59:10.954Z,48.90
2017-11-10T01:00:10.933Z,45.90
2017-11-10T01:01:11.202Z,39.20
2017-11-10T01:02:10.877Z,44.50
2017-11-10T01:03:10.848Z,52.40
2017-11-10T01:04:10.819Z,43.10
2017-11-10T01:05:10.790Z,51.30
2017-11-10T01:06:10.761Z,50.60
2017-11-10T01:07:10.744Z,47.00
2017-11-10T01:08:10.709Z,51.00
2017-11-10T01:09:10.685Z,54.30
2017-11-10T01:10:10.657Z,50.10
2017-11-10T01:11:10.630Z,48.40
2017-11-10T01:12:10.600Z,48.50
2017-11-10T01:13:10.826Z,56.50
2017-11-10T01:14:10.551Z,54.80
2017-11-10T01:15:10.519Z,52.40
2017-11-10T01:16:10.497Z,50.10
2017-11-10T01:17:10.462Z,50.20
2017-11-10T01:18:10.739Z,48.50
2017-11-10T01:19:10.407Z,50.90
2017-11-10T01:20:10.386Z,47.80
2017-11-10T01:21:10.368Z,54.70
2017-11-10T01:22:10.328Z,45.40
2017-11-10T01:23:10.308Z,46.70
2017-11-10T01:24:10.523Z,48.40
2017-11-10T01:25:10.254Z,48.60
2017-11-10T01:26:10.220Z,52.00
2017-11-10T01:27:10.197Z,51.60
2017-11-10T01:28:10.164Z,46.00
2017-11-10T01:29:10.136Z,45.70
2017-11-10T01:30:10.110Z,42.90
2017-11-10T01:31:10.089Z,36.80
2017-11-10T01:32:10.053Z,38.00
2017-11-10T01:33:10.026Z,38.90
2017-11-10T01:34:10.005Z,38.60
2017-11-10T01:35:09.984Z,43.20
2017-11-10T01:36:10.199Z,35.60
2017-11-10T01:37:09.918Z,39.10
2017-11-10T01:38:09.890Z,40.00
2017-11-10T01:39:09.866Z,33.10
2017-11-10T01:40:09.840Z,40.90
2017-11-10T01:41:09.811Z,25.30
2017-11-10T01:42:10.139Z,28.90
2017-11-10T01:43:09.757Z,33.70
2017-11-10T01:44:09.729Z,37.40
2017-11-10T01:45:09.706Z,25.10
2017-11-10T01:46:09.675Z,25.40
2017-11-10T01:47:09.649Z,36.20
2017-11-10T01:48:09.622Z,40.50
2017-11-10T01:49:09.591Z,30.30
2017-11-10T01:50:09.567Z,35.50
2017-11-10T01:51:09.545Z,32.20
2017-11-10T01:52:09.513Z,26.40
2017-11-10T01:53:09.490Z,34.80
2017-11-10T01:54:09.463Z,37.00
2017-11-10T01:55:09.431Z,32.50
2017-11-10T01:56:09.408Z,36.40
2017-11-10T01:57:09.379Z,40.90
2017-11-10T01:58:09.352Z,39.00
2017-11-10T01:59:09.322Z,39.20
2017-11-10T02:00:09.291Z,33.90
2017-11-10T02:01:09.268Z,24.80
2017-11-10T02:02:09.244Z,25.10
2017-11-10T02:03:09.220Z,24.70
2017-11-10T02:04:09.182Z,26.30
2017-11-10T02:05:09.157Z,31.30
2017-11-10T02:06:09.129Z,37.70
2017-11-10T02:07:09.099Z,33.70
2017-11-10T02:08:09.084Z,30.10
2017-11-10T02:09:09.062Z,35.20
2017-11-10T02:10:09.017Z,37.20
2017-11-10T02:11:08.994Z,34.10
2017-11-10T02:12:09.215Z,34.20
2017-11-10T02:13:08.941Z,33.70
2017-11-10T02:14:08.909Z,33.20
2017-11-10T02:15:08.891Z,32.90
2017-11-10T02:16:08.863Z,25.40
2017-11-10T02:17:08.837Z,32.50
2017-11-10T02:18:09.052Z,28.70
2017-11-10T02:19:08.786Z,33.10
2017-11-10T02:20:08.751Z,29.10
2017-11-10T02:21:08.720Z,29.80
2017-11-10T02:22:08.702Z,29.00
2017-11-10T02:23:08.673Z,25.60
2017-11-10T02:24:08.638Z,32.50
2017-11-10T02:25:08.614Z,24.80
2017-11-10T02:26:08.585Z,26.30
2017-11-10T02:27:08.557Z,22.40
2017-11-10T02:28:08.533Z,29.30
2017-11-10T02:29:08.755Z,30.20
2017-11-10T02:30:08.478Z,33.70
2017-11-10T02:31:08.451Z,29.30
2017-11-10T02:32:08.422Z,33.10
2017-11-10T02:33:08.399Z,35.20
2017-11-10T02:34:08.375Z,34.00
2017-11-10T02:35:08.596Z,32.90
2017-11-10T02:36:08.321Z,31.50
2017-11-10T02:37:08.296Z,28.40
2017-11-10T02:38:08.271Z,22.40
2017-11-10T02:39:08.246Z,21.00
2017-11-10T02:40:08.207Z,20.70
2017-11-10T02:41:08.480Z,26.80
2017-11-10T02:42:08.150Z,34.00
2017-11-10T02:43:08.129Z,36.20
2017-11-10T02:44:08.096Z,28.00
2017-11-10T02:45:08.069Z,32.40
2017-11-10T02:46:08.044Z,31.80
2017-11-10T02:47:08.019Z,31.00
2017-11-10T02:48:07.991Z,34.20
2017-11-10T02:49:07.966Z,26.10
2017-11-10T02:50:07.945Z,24.40
2017-11-10T02:51:07.904Z,28.50
2017-11-10T02:52:07.881Z,20.10
2017-11-10T02:53:07.853Z,29.80
2017-11-10T02:54:07.832Z,31.70
2017-11-10T02:55:07.798Z,27.60
2017-11-10T02:56:07.769Z,25.80
2017-11-10T02:57:07.748Z,29.10
2017-11-10T02:58:07.712Z,33.30
2017-11-10T02:59:07.987Z,35.50
2017-11-10T03:00:07.670Z,38.00
2017-11-10T03:01:07.634Z,34.90
2017-11-10T03:02:07.616Z,28.10
2017-11-10T03:03:07.581Z,34.20
2017-11-10T03:04:07.554Z,22.70
2017-11-10T03:05:07.781Z,26.70
2017-11-10T03:06:07.502Z,20.40
2017-11-10T03:07:07.472Z,27.40
2017-11-10T03:08:07.458Z,35.60
2017-11-10T03:09:07.413Z,31.70
2017-11-10T03:10:07.395Z,35.40
2017-11-10T03:11:07.711Z,26.30
2017-11-10T03:12:07.337Z,36.30
2017-11-10T03:13:07.303Z,31.50
2017-11-10T03:14:07.282Z,21.40
2017-11-10T03:15:07.267Z,24.70
2017-11-10T03:16:07.265Z,23.40
2017-11-10T03:17:07.448Z,32.00
2017-11-10T03:18:07.175Z,38.30
2017-11-10T03:19:07.170Z,24.70
2017-11-10T03:20:07.114Z,34.60
2017-11-10T03:21:07.091Z,38.50
2017-11-10T03:22:07.069Z,34.60
2017-11-10T03:23:07.036Z,32.90
2017-11-10T03:24:07.012Z,30.10
2017-11-10T03:25:06.983Z,26.70
2017-11-10T03:26:06.951Z,26.70
2017-11-10T03:27:06.923Z,22.60
2017-11-10T03:28:06.901Z,25.00
2017-11-10T03:29:06.870Z,25.80
2017-11-10T03:30:06.848Z,31.70
2017-11-10T03:31:06.823Z,30.60
2017-11-10T03:32:06.789Z,28.40
2017-11-10T03:33:06.761Z,31.20
2017-11-10T03:34:06.730Z,18.50
2017-11-10T03:35:06.704Z,22.70
2017-11-10T03:36:06.682Z,29.10
2017-11-10T03:37:06.648Z,23.90
2017-11-10T03:38:06.620Z,21.50
2017-11-10T03:39:06.597Z,25.40
2017-11-10T03:40:06.570Z,29.90
2017-11-10T03:41:06.797Z,30.40
2017-11-10T03:42:06.516Z,29.50
2017-11-10T03:43:06.488Z,24.80
2017-11-10T03:44:06.465Z,33.30
2017-11-10T03:45:06.437Z,36.10
2017-11-10T03:46:06.404Z,30.70
2017-11-10T03:47:06.682Z,32.20
2017-11-10T03:48:06.350Z,32.60
2017-11-10T03:49:06.320Z,31.00
2017-11-10T03:50:06.296Z,27.90
2017-11-10T03:51:06.269Z,27.10
2017-11-10T03:52:06.242Z,30.00
2017-11-10T03:53:06.216Z,29.50
2017-11-10T03:54:06.186Z,26.50
2017-11-10T03:55:06.156Z,25.70
2017-11-10T03:56:06.134Z,29.10
2017-11-10T03:57:06.105Z,28.40
2017-11-10T03:58:06.079Z,32.50
2017-11-10T03:59:06.053Z,34.60
2017-11-10T04:00:06.022Z,30.50
2017-11-10T04:01:05.999Z,33.70
2017-11-10T04:02:05.965Z,30.60
2017-11-10T04:03:05.937Z,33.10
2017-11-10T04:04:05.912Z,32.60
2017-11-10T04:05:05.884Z,34.00
2017-11-10T04:06:05.854Z,28.90
2017-11-10T04:07:05.832Z,24.40
2017-11-10T04:08:05.809Z,21.40
2017-11-10T04:09:05.782Z,29.40
2017-11-10T04:10:06.556Z,30.40
2017-11-10T04:11:05.726Z,30.60
2017-11-10T04:12:05.697Z,31.00
2017-11-10T04:13:05.667Z,24.80
2017-11-10T04:14:05.660Z,31.40
2017-11-10T04:15:05.611Z,20.00
2017-11-10T04:16:05.835Z,26.50
2017-11-10T04:17:05.557Z,28.70
2017-11-10T04:18:05.529Z,25.50
2017-11-10T04:19:05.513Z,26.50
2017-11-10T04:20:05.477Z,30.70
2017-11-10T04:21:05.447Z,34.00
2017-11-10T04:22:05.422Z,28.00
2017-11-10T04:23:05.398Z,32.10
2017-11-10T04:24:05.369Z,27.00
2017-11-10T04:25:05.342Z,30.70
2017-11-10T04:26:05.316Z,25.60
2017-11-10T04:27:05.286Z,23.40
2017-11-10T04:28:05.561Z,24.30
2017-11-10T04:29:05.228Z,23.90
2017-11-10T04:30:05.201Z,22.60
2017-11-10T04:31:05.180Z,32.20
2017-11-10T04:32:05.160Z,26.70
2017-11-10T04:33:05.115Z,23.90
2017-11-10T04:34:05.391Z,25.00
2017-11-10T04:35:05.060Z,29.70
2017-11-10T04:36:05.039Z,26.20
2017-11-10T04:37:05.007Z,23.30
2017-11-10T04:38:04.983Z,23.10
2017-11-10T04:39:04.952Z,22.80
2017-11-10T04:40:05.326Z,28.30
2017-11-10T04:41:04.903Z,29.50
2017-11-10T04:42:04.870Z,25.90
2017-11-10T04:43:04.844Z,24.00
2017-11-10T04:44:04.816Z,24.00
2017-11-10T04:45:04.796Z,20.20
2017-11-10T04:46:05.009Z,21.20
2017-11-10T04:47:04.734Z,20.80
2017-11-10T04:48:04.713Z,27.10
2017-11-10T04:49:04.677Z,28.00
2017-11-10T04:50:04.657Z,25.20
2017-11-10T04:51:04.650Z,35.30
2017-11-10T04:52:04.598Z,37.30
2017-11-10T04:53:04.572Z,24.20
2017-11-10T04:54:04.538Z,21.60
2017-11-10T04:55:04.510Z,30.50
2017-11-10T04:56:04.491Z,32.00
2017-11-10T04:57:04.457Z,26.30
2017-11-10T04:58:04.432Z,28.30
2017-11-10T04:59:04.403Z,29.30
2017-11-10T05:00:04.372Z,21.00
2017-11-10T05:01:04.352Z,23.50
2017-11-10T05:02:04.323Z,19.50
2017-11-10T05:03:04.540Z,21.60
2017-11-10T05:04:04.273Z,19.70
2017-11-10T05:05:04.238Z,23.00
2017-11-10T05:06:04.216Z,25.20
2017-11-10T05:07:04.180Z,27.60
2017-11-10T05:08:04.153Z,21.10
2017-11-10T05:09:04.127Z,22.20
2017-11-10T05:10:04.098Z,21.30
2017-11-10T05:11:04.079Z,24.20
2017-11-10T05:12:04.043Z,22.40
2017-11-10T05:13:04.035Z,31.30
2017-11-10T05:14:03.987Z,27.30
2017-11-10T05:15:04.219Z,27.10
2017-11-10T05:16:03.931Z,28.20
2017-11-10T05:17:03.914Z,26.50
2017-11-10T05:18:03.884Z,20.00
2017-11-10T05:19:03.853Z,21.10
2017-11-10T05:20:03.825Z,20.10
2017-11-10T05:21:04.103Z,18.00
2017-11-10T05:22:03.768Z,21.60
2017-11-10T05:23:03.741Z,23.30
2017-11-10T05:24:03.715Z,22.40
2017-11-10T05:25:03.689Z,21.20
2017-11-10T05:26:03.662Z,19.40
2017-11-10T05:27:03.637Z,18.70
2017-11-10T05:28:03.608Z,20.70
2017-11-10T05:29:03.571Z,17.70
2017-11-10T05:30:03.556Z,19.20
2017-11-10T05:31:03.527Z,17.90
2017-11-10T05:32:03.497Z,20.80
2017-11-10T05:33:03.469Z,19.20
2017-11-10T05:34:03.441Z,20.80
2017-11-10T05:35:03.419Z,23.40
2017-11-10T05:36:03.390Z,17.70
2017-11-10T05:37:03.353Z,19.30
2017-11-10T05:38:03.332Z,17.70
2017-11-10T05:39:03.602Z,20.70
2017-11-10T05:40:03.271Z,19.40
2017-11-10T05:41:03.243Z,20.00
2017-11-10T05:42:03.223Z,19.30
2017-11-10T05:43:03.202Z,19.70
2017-11-10T05:44:03.164Z,16.10
2017-11-10T05:45:04.583Z,17.00
2017-11-10T05:46:03.104Z,21.60
2017-11-10T05:47:03.088Z,22.60
2017-11-10T05:48:03.054Z,22.80
2017-11-10T05:49:03.021Z,22.50
2017-11-10T05:50:02.998Z,22.50
2017-11-10T05:51:02.971Z,24.70
2017-11-10T05:52:02.941Z,18.50
2017-11-10T05:53:02.918Z,26.50
2017-11-10T05:54:02.891Z,27.90
2017-11-10T05:55:02.869Z,22.90
2017-11-10T05:56:02.830Z,20.20
2017-11-10T05:57:02.809Z,23.70
2017-11-10T05:58:02.784Z,23.20
2017-11-10T05:59:02.757Z,23.20
2017-11-10T06:00:02.726Z,28.80
2017-11-10T06:01:02.698Z,26.70
2017-11-10T06:02:02.969Z,24.20
2017-11-10T06:03:02.642Z,21.20
2017-11-10T06:04:02.622Z,23.40
2017-11-10T06:05:02.589Z,27.80
2017-11-10T06:06:02.555Z,23.50
2017-11-10T06:07:02.530Z,28.70
2017-11-10T06:08:02.499Z,20.80
2017-11-10T06:09:02.483Z,26.40
2017-11-10T06:10:02.450Z,26.70
2017-11-10T06:11:02.417Z,27.20
2017-11-10T06:12:02.391Z,25.60
2017-11-10T06:13:02.362Z,25.40
2017-11-10T06:14:02.591Z,28.50
2017-11-10T06:15:02.318Z,25.10
2017-11-10T06:16:02.289Z,25.50
2017-11-10T06:17:02.250Z,22.00
2017-11-10T06:18:02.232Z,21.30
2017-11-10T06:19:02.196Z,20.70
2017-11-10T06:20:02.425Z,24.10
2017-11-10T06:21:02.150Z,22.40
2017-11-10T06:22:02.117Z,21.10
2017-11-10T06:23:02.093Z,23.70
2017-11-10T06:24:02.059Z,24.20
2017-11-10T06:25:02.034Z,23.30
2017-11-10T06:26:02.003Z,18.20
2017-11-10T06:27:01.982Z,20.20
2017-11-10T06:28:01.951Z,21.90
2017-11-10T06:29:01.931Z,24.20
2017-11-10T06:30:01.895Z,21.60
2017-11-10T06:31:01.868Z,21.00
2017-11-10T06:32:01.840Z,22.60
2017-11-10T06:33:01.810Z,21.20
2017-11-10T06:34:01.786Z,19.90
2017-11-10T06:35:01.764Z,21.40
2017-11-10T06:36:01.737Z,23.00
2017-11-10T06:37:01.708Z,18.00
2017-11-10T06:38:01.679Z,22.00
2017-11-10T06:39:01.651Z,19.60
2017-11-10T06:40:01.624Z,27.30
2017-11-10T06:41:01.591Z,24.60
2017-11-10T06:42:01.565Z,25.20
2017-11-10T06:43:01.534Z,31.00
2017-11-10T06:44:01.511Z,32.40
2017-11-10T06:45:01.481Z,20.20
2017-11-10T06:46:01.457Z,25.50
2017-11-10T06:47:01.428Z,29.20
2017-11-10T06:48:01.402Z,20.30
2017-11-10T06:49:01.370Z,19.90
2017-11-10T06:50:01.359Z,24.20
2017-11-10T06:51:01.323Z,18.10
2017-11-10T06:52:01.296Z,21.60
2017-11-10T06:53:01.261Z,21.30
2017-11-10T06:54:01.236Z,23.40
2017-11-10T06:55:01.203Z,31.20
2017-11-10T06:56:01.181Z,21.00
2017-11-10T06:57:01.156Z,22.40
2017-11-10T06:58:01.125Z,21.50
2017-11-10T06:59:01.096Z,21.10
2017-11-10T07:00:01.068Z,19.70
2017-11-10T07:01:01.041Z,28.20
2017-11-10T07:02:01.011Z,19.00
2017-11-10T07:03:00.988Z,20.70
2017-11-10T07:04:00.956Z,21.60
2017-11-10T07:05:00.929Z,21.70
2017-11-10T07:06:00.904Z,24.50
2017-11-10T07:07:00.975Z,21.90
2017-11-10T07:08:00.854Z,25.10
2017-11-10T07:09:00.822Z,23.90
2017-11-10T07:10:00.802Z,21.70
2017-11-10T07:11:00.767Z,19.90
2017-11-10T07:12:00.735Z,21.00
2017-11-10T07:13:01.014Z,23.40
2017-11-10T07:14:00.685Z,19.50
2017-11-10T07:15:00.659Z,21.00
2017-11-10T07:16:00.632Z,23.50
2017-11-10T07:17:00.608Z,24.30
2017-11-10T07:18:00.574Z,23.70
2017-11-10T07:19:00.543Z,16.50
2017-11-10T07:20:00.521Z,19.30
2017-11-10T07:21:00.489Z,18.10
2017-11-10T07:22:00.465Z,17.80
2017-11-10T07:23:00.443Z,21.10
2017-11-10T07:24:00.408Z,21.50
2017-11-10T07:25:00.379Z,21.10
2017-11-10T07:26:00.349Z,21.40
2017-11-10T07:27:00.332Z,24.50
2017-11-10T07:28:00.304Z,26.70
2017-11-10T07:29:00.267Z,26.30
2017-11-10T07:30:00.245Z,23.20
2017-11-10T07:31:00.218Z,22.10
2017-11-10T07:32:00.196Z,23.20
2017-11-10T07:33:00.165Z,23.80
2017-11-10T07:34:00.132Z,20.70
2017-11-10T07:35:00.109Z,19.90
2017-11-10T07:36:00.381Z,23.70
2017-11-10T07:37:00.048Z,19.50
2017-11-10T07:38:00.025Z,19.30
2017-11-10T07:38:59.996Z,21.60
2017-11-10T07:39:59.964Z,25.40
2017-11-10T07:40:59.940Z,22.60
2017-11-10T07:41:59.913Z,21.10
2017-11-10T07:42:59.885Z,19.90
2017-11-10T07:43:59.859Z,18.50
2017-11-10T07:44:59.833Z,24.70
2017-11-10T07:45:59.807Z,23.40
2017-11-10T07:46:59.779Z,22.20
2017-11-10T07:47:59.748Z,24.00
2017-11-10T07:48:59.722Z,20.10
2017-11-10T07:49:59.713Z,23.10
2017-11-10T07:50:59.673Z,18.80
2017-11-10T07:51:59.640Z,18.20
2017-11-10T07:52:59.607Z,18.20
2017-11-10T07:53:59.583Z,18.50
2017-11-10T07:54:59.570Z,18.30
2017-11-10T07:55:59.530Z,17.80
2017-11-10T07:56:59.496Z,16.90
2017-11-10T07:57:59.470Z,17.60
2017-11-10T07:58:59.449Z,19.90
2017-11-10T07:59:59.421Z,18.90
2017-11-10T08:00:59.395Z,16.10
2017-11-10T08:01:59.372Z,15.10
2017-11-10T08:02:59.337Z,20.40
2017-11-10T08:03:59.315Z,18.80
2017-11-10T08:04:59.284Z,17.60
2017-11-10T08:05:59.276Z,17.00
2017-11-10T08:06:59.231Z,18.50
2017-11-10T08:07:59.209Z,15.90
2017-11-10T08:08:59.170Z,14.00
2017-11-10T08:09:59.147Z,13.90
2017-11-10T08:10:59.117Z,15.00
2017-11-10T08:11:59.091Z,19.80
2017-11-10T08:12:59.065Z,16.80
2017-11-10T08:13:59.043Z,16.70
2017-11-10T08:14:59.014Z,15.50
2017-11-10T08:15:58.983Z,16.60
2017-11-10T08:16:58.953Z,15.90
2017-11-10T08:17:58.932Z,14.30
2017-11-10T08:18:58.900Z,15.60
2017-11-10T08:19:58.880Z,17.00
2017-11-10T08:20:58.848Z,16.60
2017-11-10T08:21:58.819Z,14.90
2017-11-10T08:22:58.800Z,14.50
2017-11-10T08:23:58.765Z,15.60
2017-11-10T08:24:58.737Z,15.60
2017-11-10T08:25:58.711Z,15.70
2017-11-10T08:26:58.683Z,15.10
2017-11-10T08:27:58.656Z,18.70
2017-11-10T08:28:58.632Z,15.00
2017-11-10T08:29:58.608Z,18.60
2017-11-10T08:30:58.576Z,17.40
2017-11-10T08:31:58.550Z,16.00
2017-11-10T08:32:58.519Z,14.90
2017-11-10T08:33:58.501Z,17.70
2017-11-10T08:34:58.468Z,13.60
2017-11-10T08:35:58.446Z,16.80
2017-11-10T08:36:58.413Z,14.60
2017-11-10T08:37:58.387Z,13.90
2017-11-10T08:38:58.365Z,14.30
2017-11-10T08:39:58.334Z,16.80
2017-11-10T08:40:58.600Z,15.00
2017-11-10T08:41:58.277Z,15.50
2017-11-10T08:42:58.254Z,16.70
2017-11-10T08:43:58.220Z,15.10
2017-11-10T08:44:58.199Z,14.60
2017-11-10T08:45:58.173Z,15.60
2017-11-10T08:46:58.144Z,15.70
2017-11-10T08:47:58.110Z,17.90
2017-11-10T08:48:58.095Z,16.30
2017-11-10T08:49:58.062Z,16.20
2017-11-10T08:50:58.037Z,16.60
2017-11-10T08:51:58.005Z,18.00
2017-11-10T08:52:57.980Z,19.70
2017-11-10T08:53:57.950Z,18.20
2017-11-10T08:54:57.923Z,17.60
2017-11-10T08:55:57.903Z,16.50
2017-11-10T08:56:57.870Z,18.60
2017-11-10T08:57:57.840Z,14.60
2017-11-10T08:58:57.814Z,19.10
2017-11-10T08:59:57.782Z,15.40
2017-11-10T09:00:57.756Z,16.80
2017-11-10T09:01:57.730Z,15.40
2017-11-10T09:02:57.701Z,16.30
2017-11-10T09:03:57.681Z,17.50
2017-11-10T09:04:57.652Z,17.90
2017-11-10T09:05:57.623Z,18.20
2017-11-10T09:06:57.608Z,21.30
2017-11-10T09:07:57.574Z,17.10
2017-11-10T09:08:57.539Z,15.20
2017-11-10T09:09:57.507Z,16.90
2017-11-10T09:10:57.494Z,16.50
2017-11-10T09:11:57.454Z,16.00
2017-11-10T09:12:57.429Z,17.60
2017-11-10T09:13:57.400Z,16.20
2017-11-10T09:14:57.385Z,19.20
2017-11-10T09:15:57.344Z,21.30
2017-11-10T09:16:57.360Z,22.30
2017-11-10T09:17:57.290Z,18.90
2017-11-10T09:18:57.273Z,19.30
2017-11-10T09:19:57.237Z,19.80
2017-11-10T09:20:57.214Z,20.60
2017-11-10T09:21:57.182Z,22.90
2017-11-10T09:22:57.156Z,19.00
2017-11-10T09:23:57.124Z,19.80
2017-11-10T09:24:57.101Z,17.80
2017-11-10T09:25:57.072Z,17.90
2017-11-10T09:26:57.048Z,19.30
2017-11-10T09:27:57.022Z,18.30
2017-11-10T09:28:57.003Z,19.70
2017-11-10T09:29:56.964Z,21.40
2017-11-10T09:30:56.948Z,19.40
2017-11-10T09:31:56.915Z,19.40
2017-11-10T09:32:56.883Z,17.90
2017-11-10T09:33:56.856Z,18.70
2017-11-10T09:34:56.868Z,15.60
2017-11-10T09:35:56.805Z,18.40
2017-11-10T09:36:56.775Z,17.90
2017-11-10T09:37:56.747Z,19.00
2017-11-10T09:38:56.720Z,18.20
2017-11-10T09:39:56.692Z,17.90
2017-11-10T09:40:56.673Z,16.40
2017-11-10T09:41:56.645Z,16.30
2017-11-10T09:42:56.613Z,17.90
2017-11-10T09:43:56.599Z,17.10
2017-11-10T09:44:56.558Z,18.20
2017-11-10T09:45:56.535Z,18.00
2017-11-10T09:46:56.510Z,19.10
2017-11-10T09:47:56.481Z,17.10
2017-11-10T09:48:56.454Z,17.60
2017-11-10T09:49:56.426Z,17.20
2017-11-10T09:50:56.651Z,16.50
2017-11-10T09:51:56.380Z,13.30
2017-11-10T09:52:56.349Z,15.60
2017-11-10T09:53:56.326Z,15.30
2017-11-10T09:54:56.290Z,18.00
2017-11-10T09:55:56.269Z,19.50
2017-11-10T09:56:56.242Z,16.10
2017-11-10T09:57:56.217Z,18.50
2017-11-10T09:58:56.194Z,17.30
2017-11-10T09:59:56.159Z,16.80
2017-11-10T10:00:56.133Z,17.10
2017-11-10T10:01:56.110Z,17.20
2017-11-10T10:02:56.078Z,20.50
2017-11-10T10:03:56.064Z,17.70
2017-11-10T10:04:56.032Z,16.20
2017-11-10T10:05:56.007Z,15.30
2017-11-10T10:06:55.980Z,17.90
2017-11-10T10:07:55.954Z,17.10
2017-11-10T10:08:55.919Z,17.00
2017-11-10T10:09:55.925Z,15.90
2017-11-10T10:10:55.871Z,16.30
2017-11-10T10:11:55.848Z,14.60
2017-11-10T10:12:55.824Z,16.10
2017-11-10T10:13:55.798Z,16.20
2017-11-10T10:14:56.065Z,15.10
2017-11-10T10:15:55.738Z,14.00
2017-11-10T10:16:55.713Z,14.90
2017-11-10T10:17:55.686Z,14.30
2017-11-10T10:18:55.664Z,14.60
2017-11-10T10:19:55.645Z,15.20
2017-11-10T10:20:55.607Z,12.90
2017-11-10T10:21:55.586Z,16.50
2017-11-10T10:22:55.571Z,14.80
2017-11-10T10:23:55.536Z,13.60
2017-11-10T10:24:55.507Z,16.00
2017-11-10T10:25:55.490Z,17.20
2017-11-10T10:26:55.460Z,16.10
2017-11-10T10:27:55.429Z,15.20
2017-11-10T10:28:55.409Z,13.40
2017-11-10T10:29:55.378Z,15.50
2017-11-10T10:30:55.349Z,13.60
2017-11-10T10:31:55.328Z,14.70
2017-11-10T10:32:55.296Z,15.10
2017-11-10T10:33:55.278Z,14.80
2017-11-10T10:34:55.254Z,15.00
2017-11-10T10:35:55.219Z,13.50
2017-11-10T10:36:55.207Z,13.00
2017-11-10T10:37:55.168Z,15.50
2017-11-10T10:38:55.147Z,14.70
2017-11-10T10:39:55.123Z,14.70
2017-11-10T10:40:55.097Z,14.10
2017-11-10T10:41:55.077Z,16.30
2017-11-10T10:42:55.039Z,14.90
2017-11-10T10:43:55.017Z,19.40
2017-11-10T10:44:54.983Z,18.70
2017-11-10T10:45:54.959Z,16.70
2017-11-10T10:46:54.935Z,15.50
2017-11-10T10:47:54.911Z,13.80
2017-11-10T10:48:54.910Z,14.90
2017-11-10T10:49:55.159Z,15.90
2017-11-10T10:50:54.830Z,14.00
2017-11-10T10:51:54.816Z,13.00
2017-11-10T10:52:54.780Z,13.10
2017-11-10T10:53:54.757Z,13.20
2017-11-10T10:54:54.722Z,14.40
2017-11-10T10:55:54.896Z,13.60
2017-11-10T10:56:54.674Z,14.40
2017-11-10T10:57:54.649Z,13.80
2017-11-10T10:58:54.619Z,13.50
2017-11-10T10:59:54.596Z,12.90
2017-11-10T11:00:54.563Z,12.00
2017-11-10T11:01:54.550Z,13.20
2017-11-10T11:02:54.514Z,12.40
2017-11-10T11:03:54.491Z,14.50
2017-11-10T11:04:54.467Z,15.20
2017-11-10T11:05:54.438Z,12.40
2017-11-10T11:06:54.410Z,15.10
2017-11-10T11:07:54.388Z,14.40
2017-11-10T11:08:54.364Z,12.70
2017-11-10T11:09:54.346Z,14.50
2017-11-10T11:10:54.304Z,12.90
2017-11-10T11:11:54.277Z,12.80
2017-11-10T11:12:54.247Z,14.10
2017-11-10T11:13:54.227Z,15.30
2017-11-10T11:14:54.198Z,13.40
2017-11-10T11:15:54.172Z,12.70
2017-11-10T11:16:54.150Z,13.90
2017-11-10T11:17:54.135Z,12.60
2017-11-10T11:18:54.097Z,13.60
2017-11-10T11:19:54.084Z,13.30
2017-11-10T11:20:54.043Z,12.50
2017-11-10T11:21:54.015Z,11.40
2017-11-10T11:22:53.989Z,12.30
2017-11-10T11:23:53.961Z,11.70
2017-11-10T11:24:53.944Z,11.10
2017-11-10T11:25:53.913Z,12.80
2017-11-10T11:26:53.883Z,11.70
2017-11-10T11:27:53.858Z,12.90
2017-11-10T11:28:53.834Z,12.70
2017-11-10T11:29:53.801Z,12.10
2017-11-10T11:30:53.781Z,12.40
2017-11-10T11:31:53.755Z,12.00
2017-11-10T11:32:53.722Z,11.80
2017-11-10T11:33:53.753Z,10.10
2017-11-10T11:34:53.674Z,12.10
2017-11-10T11:35:53.651Z,14.90
2017-11-10T11:36:53.623Z,12.40
2017-11-10T11:37:53.591Z,15.10
2017-11-10T11:38:53.567Z,11.60
2017-11-10T11:39:53.542Z,12.90
2017-11-10T11:40:53.512Z,10.20
2017-11-10T11:41:53.484Z,11.90
2017-11-10T11:42:53.457Z,10.70
2017-11-10T11:43:53.441Z,11.70
2017-11-10T11:44:53.415Z,8.30
2017-11-10T11:45:53.378Z,9.60
2017-11-10T11:46:53.353Z,9.40
2017-11-10T11:47:53.331Z,9.00
2017-11-10T11:48:53.299Z,9.20
2017-11-10T11:49:53.273Z,10.50
2017-11-10T11:50:53.271Z,8.10
2017-11-10T11:51:53.224Z,9.00
2017-11-10T11:52:53.190Z,10.20
2017-11-10T11:53:53.195Z,10.30
2017-11-10T11:54:53.140Z,9.50
2017-11-10T11:55:53.115Z,8.10
2017-11-10T11:56:53.093Z,9.40
2017-11-10T11:57:53.058Z,8.00
2017-11-10T11:58:53.033Z,8.80
2017-11-10T11:59:53.006Z,9.80
2017-11-10T12:00:52.987Z,8.30
2017-11-10T12:01:52.956Z,8.80
2017-11-10T12:02:52.928Z,7.80
2017-11-10T12:03:52.906Z,7.70
2017-11-10T12:04:52.875Z,8.60
2017-11-10T12:05:52.846Z,8.60
2017-11-10T12:06:52.828Z,8.00
2017-11-10T12:07:52.802Z,8.20
2017-11-10T12:08:52.768Z,7.60
2017-11-10T12:09:52.743Z,7.60
2017-11-10T12:10:52.724Z,7.50
2017-11-10T12:11:52.687Z,8.30
2017-11-10T12:12:52.665Z,8.40
2017-11-10T12:13:52.641Z,6.30
2017-11-10T12:14:52.611Z,7.00
2017-11-10T12:15:52.584Z,7.10
2017-11-10T12:16:52.555Z,7.20
2017-11-10T12:17:52.530Z,6.20
2017-11-10T12:18:52.505Z,7.70
2017-11-10T12:19:52.480Z,7.30
2017-11-10T12:20:52.451Z,7.60
2017-11-10T12:21:52.425Z,7.80
2017-11-10T12:22:52.397Z,8.50
2017-11-10T12:23:52.371Z,7.40
2017-11-10T12:24:52.340Z,8.00
2017-11-10T12:25:52.321Z,7.00
2017-11-10T12:26:52.298Z,7.90
2017-11-10T12:27:52.263Z,8.30
2017-11-10T12:28:52.249Z,9.00
2017-11-10T12:29:52.216Z,9.10
2017-11-10T12:30:52.182Z,8.10
2017-11-10T12:31:52.159Z,7.10
2017-11-10T12:32:52.126Z,6.70
2017-11-10T12:33:52.106Z,8.80
2017-11-10T12:34:52.072Z,9.50
2017-11-10T12:35:52.055Z,8.90
2017-11-10T12:36:52.014Z,9.60
2017-11-10T12:37:51.990Z,8.00
2017-11-10T12:38:51.964Z,7.50
2017-11-10T12:39:51.941Z,6.70
2017-11-10T12:40:51.914Z,6.70
2017-11-10T12:41:51.883Z,8.90
2017-11-10T12:42:51.864Z,7.60
2017-11-10T12:43:51.825Z,8.20
2017-11-10T12:44:51.812Z,8.20
2017-11-10T12:45:51.785Z,8.10
2017-11-10T12:46:51.753Z,8.80
2017-11-10T12:47:51.716Z,7.00
2017-11-10T12:48:51.691Z,7.50
2017-11-10T12:49:51.670Z,6.90
2017-11-10T12:50:51.641Z,7.60
2017-11-10T12:51:51.612Z,7.10
2017-11-10T12:52:51.576Z,6.60
2017-11-10T12:53:51.810Z,6.30